Time;durP1;ratioP1;P1;durP2;ratioP2;P2;SDS_P1;SDS_P2;PMS_P1;PMS_P2;Temp;Humidity;BMP_temperature;BMP_pressure;BME280_temperature;BME280_humidity;BME280_pressure;Samples;Min_cycle;Max_cycle;Signal;HPM_P1;HPM_P2
2023/07/03 00:03:25;;;;;;;1.10;0.98;;;;;;;14.92;96.25;98566.91;10514512;28;20048;-84
2023/07/03 00:08:27;;;;;;;0.88;0.88;;;;;;;14.96;96.33;98569.75;10499083;28;20044;-85
2023/07/03 00:13:29;;;;;;;1.83;0.90;;;;;;;14.98;96.31;98573.75;10480112;28;20075;-86
2023/07/03 00:18:31;;;;;;;1.23;0.95;;;;;;;14.88;95.89;98577.06;10494766;28;20038;-84
2023/07/03 00:23:33;;;;;;;1.88;1.10;;;;;;;14.93;95.62;98582.34;10461393;28;20043;-85
2023/07/03 00:28:36;;;;;;;1.30;1.20;;;;;;;14.85;95.14;98572.28;10498652;28;20043;-84
2023/07/03 00:33:40;;;;;;;1.85;1.35;;;;;;;14.85;94.61;98574.22;10483303;28;20400;-85
2023/07/03 00:38:42;;;;;;;1.20;1.10;;;;;;;14.74;94.85;98579.50;10482750;28;20041;-84
2023/07/03 00:43:44;;;;;;;1.83;1.38;;;;;;;14.73;94.94;98573.19;10513070;28;20048;-85
2023/07/03 00:48:46;;;;;;;3.60;1.35;;;;;;;14.69;95.00;98583.34;10495129;28;20063;-85
2023/07/03 00:53:49;;;;;;;1.30;1.20;;;;;;;14.71;94.44;98580.22;10511270;28;20043;-85
2023/07/03 00:58:51;;;;;;;2.55;1.52;;;;;;;14.68;94.53;98572.66;10511817;28;20048;-85
2023/07/03 01:04:03;;;;;;;3.00;1.50;;;;;;;14.65;94.86;98568.66;10460153;28;20048;-84
2023/07/03 01:09:07;;;;;;;1.50;1.40;;;;;;;14.67;94.63;98566.34;10462267;28;20037;-86
2023/07/03 01:14:13;;;;;;;3.10;1.20;;;;;;;14.62;94.74;98579.63;10467169;28;20044;-83
2023/07/03 01:19:22;;;;;;;2.33;1.35;;;;;;;14.60;94.75;98576.44;10483829;28;20422;-84
2023/07/03 01:24:41;;;;;;;1.55;1.23;;;;;;;14.50;94.76;98574.19;10456095;23;21658;-74
2023/07/03 01:29:44;;;;;;;1.92;1.27;;;;;;;14.56;95.09;98581.03;10468429;28;20508;-74
2023/07/03 01:34:48;;;;;;;2.63;1.52;;;;;;;14.54;95.26;98589.69;10433383;28;20040;-73
2023/07/03 01:39:51;;;;;;;1.90;1.50;;;;;;;14.53;95.05;98590.84;10456176;28;20458;-73
2023/07/03 01:44:53;;;;;;;2.30;1.40;;;;;;;14.62;95.18;98605.28;10476640;28;20383;-73
2023/07/03 01:49:56;;;;;;;6.05;1.70;;;;;;;14.68;94.55;98600.25;10478494;28;20047;-73
2023/07/03 01:55:13;;;;;;;1.60;1.33;;;;;;;14.73;94.07;98597.22;10461448;28;20041;-73
2023/07/03 02:00:21;;;;;;;2.35;1.58;;;;;;;14.72;93.79;98593.66;10460126;28;20040;-74
2023/07/03 02:05:28;;;;;;;1.65;1.52;;;;;;;14.74;93.30;98596.06;10461486;28;20525;-74
2023/07/03 02:10:30;;;;;;;4.07;1.67;;;;;;;14.78;93.06;98588.69;10460379;28;20057;-74
2023/07/03 02:15:32;;;;;;;3.10;1.60;;;;;;;14.87;92.78;98602.28;10465300;28;20537;-74
2023/07/03 02:20:36;;;;;;;2.00;1.60;;;;;;;14.87;91.93;98597.56;10447024;28;20418;-74
2023/07/03 02:25:38;;;;;;;2.80;1.30;;;;;;;14.88;91.50;98584.56;10445804;28;20044;-74
2023/07/03 02:30:40;;;;;;;2.47;1.45;;;;;;;14.92;90.75;98585.44;10479581;28;20055;-74
2023/07/03 02:35:45;;;;;;;2.28;1.42;;;;;;;14.99;90.42;98577.31;10485031;28;20499;-74
2023/07/03 02:40:47;;;;;;;1.45;1.30;;;;;;;14.88;89.52;98577.06;10484043;28;20037;-74
2023/07/03 02:45:50;;;;;;;1.58;1.33;;;;;;;14.90;89.08;98585.00;10482735;28;20052;-74
2023/07/03 02:50:54;;;;;;;1.80;1.58;;;;;;;14.94;88.35;98585.91;10450952;28;20041;-74
2023/07/03 02:55:57;;;;;;;2.78;1.58;;;;;;;14.96;88.31;98583.56;10481067;28;20041;-74
2023/07/03 03:01:01;;;;;;;2.13;1.40;;;;;;;15.00;87.89;98596.28;10459534;28;20053;-74
2023/07/03 03:06:03;;;;;;;2.15;1.50;;;;;;;14.98;87.31;98597.81;10483223;28;20041;-74
2023/07/03 03:11:06;;;;;;;2.72;1.40;;;;;;;15.00;86.94;98603.78;10477474;28;20037;-74
2023/07/03 03:16:08;;;;;;;2.20;1.42;;;;;;;15.00;86.51;98598.25;10453405;28;20037;-74
2023/07/03 03:21:11;;;;;;;1.90;1.42;;;;;;;15.06;85.79;98591.28;10480345;28;20037;-75
2023/07/03 03:26:13;;;;;;;2.85;1.40;;;;;;;15.42;85.19;98594.81;10456623;28;20053;-74
2023/07/03 03:31:16;;;;;;;1.55;1.40;;;;;;;15.49;83.52;98612.34;10451641;28;20388;-74
2023/07/03 03:36:25;;;;;;;2.75;1.45;;;;;;;15.57;83.33;98596.69;10449569;28;20052;-74
2023/07/03 03:41:28;;;;;;;2.65;1.40;;;;;;;15.55;82.61;98610.88;10480711;28;20057;-74
2023/07/03 03:46:31;;;;;;;2.30;1.55;;;;;;;15.79;82.28;98614.53;10483710;28;20087;-74
2023/07/03 03:51:33;;;;;;;5.47;2.25;;;;;;;15.79;82.72;98620.88;10465648;28;20422;-74
2023/07/03 03:56:36;;;;;;;2.50;1.52;;;;;;;15.72;83.15;98619.94;10487469;28;20040;-74
2023/07/03 04:01:39;;;;;;;1.83;1.33;;;;;;;15.82;82.81;98627.66;10462980;28;20045;-74
2023/07/03 04:06:42;;;;;;;2.35;1.63;;;;;;;15.85;82.16;98613.91;10486169;28;20052;-74
2023/07/03 04:11:44;;;;;;;2.05;1.52;;;;;;;15.66;82.06;98627.75;10489439;28;20392;-74
2023/07/03 04:16:46;;;;;;;4.50;1.70;;;;;;;15.62;82.30;98626.88;10471499;28;20041;-74
2023/07/03 04:21:48;;;;;;;4.13;1.42;;;;;;;15.69;80.94;98627.00;10487524;28;20056;-74
2023/07/03 04:26:54;;;;;;;1.65;1.55;;;;;;;15.73;79.21;98633.41;10482727;28;20053;-73
2023/07/03 04:31:56;;;;;;;3.60;2.22;;;;;;;15.82;78.38;98638.72;10487149;28;20044;-73
2023/07/03 04:36:58;;;;;;;2.00;1.60;;;;;;;15.77;78.03;98641.75;10463151;28;20045;-74
2023/07/03 04:42:00;;;;;;;2.22;1.15;;;;;;;15.73;78.50;98641.69;10478377;28;20057;-74
2023/07/03 04:47:04;;;;;;;4.32;1.80;;;;;;;15.71;78.84;98646.00;10462354;28;20411;-74
2023/07/03 04:52:07;;;;;;;2.25;1.40;;;;;;;15.69;78.63;98646.38;10489662;28;20503;-74
2023/07/03 04:57:09;;;;;;;4.65;1.50;;;;;;;15.72;77.87;98653.13;10482575;28;20072;-74
2023/07/03 05:02:13;;;;;;;1.85;1.48;;;;;;;15.75;78.29;98661.50;10475163;28;20036;-74
2023/07/03 05:07:17;;;;;;;3.92;1.40;;;;;;;15.70;78.23;98667.31;10476704;28;20049;-74
2023/07/03 05:12:19;;;;;;;1.88;1.15;;;;;;;15.64;78.56;98675.09;10464634;28;20037;-74
2023/07/03 05:17:22;;;;;;;4.68;1.30;;;;;;;15.74;78.23;98672.91;10486681;28;20063;-74
2023/07/03 05:22:24;;;;;;;2.33;1.35;;;;;;;15.98;77.03;98678.97;10486213;28;20055;-74
2023/07/03 05:27:26;;;;;;;1.73;1.13;;;;;;;16.00;76.30;98691.63;10464259;28;20426;-74
2023/07/03 05:32:28;;;;;;;1.77;1.20;;;;;;;15.94;76.45;98700.22;10469015;28;20048;-74
2023/07/03 05:37:33;;;;;;;4.25;1.45;;;;;;;15.85;76.59;98696.88;10484114;28;20033;-73
2023/07/03 05:42:35;;;;;;;2.10;1.40;;;;;;;15.95;75.39;98701.81;10487582;28;20048;-73
2023/07/03 05:47:38;;;;;;;1.80;1.10;;;;;;;16.10;74.69;98705.66;10463740;28;20051;-73
2023/07/03 05:52:41;;;;;;;2.70;1.23;;;;;;;16.15;74.47;98715.66;10467350;28;20057;-74
2023/07/03 05:57:43;;;;;;;1.15;0.95;;;;;;;16.27;73.44;98718.25;10465865;28;20049;-74
2023/07/03 06:02:46;;;;;;;1.15;0.95;;;;;;;16.22;73.11;98735.16;10482081;28;20794;-75
2023/07/03 06:07:49;;;;;;;3.67;1.35;;;;;;;16.00;74.40;98733.13;10466410;28;20415;-74
2023/07/03 06:12:51;;;;;;;1.17;0.98;;;;;;;15.65;76.23;98747.78;10484875;28;20041;-74
2023/07/03 06:17:55;;;;;;;1.50;1.00;;;;;;;15.49;77.38;98755.28;10485156;28;20048;-74
2023/07/03 06:22:57;;;;;;;3.25;0.80;;;;;;;15.42;76.82;98755.91;10486103;28;20056;-74
2023/07/03 06:27:59;;;;;;;2.30;1.02;;;;;;;15.67;76.60;98768.38;10484246;28;20032;-74
2023/07/03 06:33:01;;;;;;;1.48;0.80;;;;;;;15.78;75.51;98760.31;10486279;28;20168;-73
2023/07/03 06:38:03;;;;;;;1.00;0.73;;;;;;;15.79;75.29;98769.41;10467419;28;20799;-73
2023/07/03 06:43:06;;;;;;;1.25;0.80;;;;;;;15.93;74.94;98784.34;10486062;28;20048;-73
2023/07/03 06:48:08;;;;;;;4.22;0.73;;;;;;;16.26;74.38;98783.06;10481610;28;20549;-73
2023/07/03 06:53:10;;;;;;;1.58;0.90;;;;;;;16.49;73.75;98792.25;10486313;28;20048;-73
2023/07/03 06:58:13;;;;;;;2.17;0.95;;;;;;;16.28;73.06;98800.13;10484532;28;20529;-73
2023/07/03 07:03:15;;;;;;;2.50;1.05;;;;;;;16.20;73.68;98801.16;10490347;28;20041;-73
2023/07/03 07:08:17;;;;;;;1.30;0.90;;;;;;;16.37;73.83;98799.91;10497220;28;20036;-73
2023/07/03 07:13:19;;;;;;;2.10;0.90;;;;;;;16.66;73.31;98818.69;10481068;28;20075;-73
2023/07/03 07:18:22;;;;;;;1.48;1.10;;;;;;;17.01;71.95;98823.31;10458961;28;20048;-73
2023/07/03 07:23:24;;;;;;;3.25;1.20;;;;;;;16.69;71.89;98826.31;10497948;28;20075;-73
2023/07/03 07:28:26;;;;;;;1.80;1.13;;;;;;;16.67;72.84;98847.22;10497225;28;20049;-72
2023/07/03 07:33:28;;;;;;;2.78;0.75;;;;;;;16.73;72.40;98848.53;10494667;28;20040;-73
2023/07/03 07:38:31;;;;;;;3.47;1.23;;;;;;;16.70;72.21;98854.81;10486729;28;20036;-73
2023/07/03 07:43:33;;;;;;;2.38;1.00;;;;;;;16.57;71.86;98856.88;10495374;28;20410;-72
2023/07/03 07:48:35;;;;;;;1.02;0.93;;;;;;;16.65;72.43;98855.84;10496300;28;20037;-72
2023/07/03 07:53:38;;;;;;;5.05;0.90;;;;;;;16.82;71.31;98871.25;10496801;28;20039;-73
2023/07/03 07:58:40;;;;;;;3.92;1.45;;;;;;;17.18;70.07;98873.56;10496884;28;20037;-73
2023/07/03 08:03:43;;;;;;;2.88;1.15;;;;;;;17.42;69.78;98886.25;10498043;28;20446;-72
2023/07/03 08:08:45;;;;;;;5.03;1.00;;;;;;;17.62;67.65;98891.72;10498919;28;20061;-74
2023/07/03 08:13:47;;;;;;;1.13;0.80;;;;;;;18.01;66.87;98898.72;10493926;28;20045;-74
2023/07/03 08:18:50;;;;;;;3.10;1.20;;;;;;;18.11;65.68;98886.19;10490385;28;20045;-74
2023/07/03 08:23:53;;;;;;;2.08;0.95;;;;;;;18.33;64.57;98904.75;10481780;28;20053;-74
2023/07/03 08:28:55;;;;;;;3.03;1.20;;;;;;;18.65;63.18;98907.22;10470101;28;20442;-74
2023/07/03 08:33:57;;;;;;;2.38;1.20;;;;;;;18.66;62.06;98911.59;10487821;28;20044;-72
2023/07/03 08:39:01;;;;;;;1.88;0.93;;;;;;;19.47;60.37;98911.72;10490025;28;20053;-72
2023/07/03 08:44:03;;;;;;;3.03;0.90;;;;;;;19.58;59.69;98920.19;10481831;28;20057;-72
2023/07/03 08:49:07;;;;;;;2.20;1.00;;;;;;;19.30;59.70;98904.00;10480044;28;20060;-72
2023/07/03 08:54:19;;;;;;;2.90;0.80;;;;;;;19.23;60.42;98928.94;10488366;28;20045;-71
2023/07/03 08:59:21;;;;;;;1.65;0.85;;;;;;;19.09;60.70;98943.50;10495716;28;20041;-71
2023/07/03 09:04:57;;;;;;;2.97;0.98;;;;;;;18.20;64.09;98942.25;10485384;28;20052;-72
2023/07/03 09:10:26;;;;;;;2.13;1.15;;;;;;;18.00;66.13;98951.84;10475036;28;20633;-72
2023/07/03 09:15:34;;;;;;;1.30;0.80;;;;;;;18.89;63.72;98947.59;10441410;28;20044;-72
2023/07/03 09:20:36;;;;;;;3.65;1.45;;;;;;;19.18;61.79;98943.19;10476744;28;20049;-71
2023/07/03 09:25:53;;;;;;;1.60;1.00;;;;;;;18.96;61.55;98965.19;10475757;28;20056;-72
2023/07/03 09:30:55;;;;;;;2.08;1.55;;;;;;;19.08;60.25;98966.09;10447139;28;20049;-71
2023/07/03 09:36:02;;;;;;;5.85;1.65;;;;;;;19.39;59.08;98970.44;10484298;28;20526;-71
2023/07/03 09:41:04;;;;;;;2.22;1.38;;;;;;;19.61;58.49;98979.81;10488252;28;20040;-72
2023/07/03 09:46:12;;;;;;;2.10;1.10;;;;;;;19.60;58.20;98990.16;10483566;28;20051;-72
2023/07/03 09:51:26;;;;;;;3.30;1.17;;;;;;;19.87;58.09;98990.84;10463205;28;20408;-72
2023/07/03 09:56:30;;;;;;;4.32;1.30;;;;;;;19.86;58.26;98987.25;10484448;28;20037;-72
2023/07/03 10:01:37;;;;;;;2.25;1.10;;;;;;;19.46;58.59;98988.00;10467667;28;20052;-72
2023/07/03 10:06:43;;;;;;;;;;;;;;;19.14;60.28;99004.31;10485694;28;20048;-73
2023/07/03 10:11:54;;;;;;;3.10;1.38;;;;;;;19.01;61.54;99016.06;10471425;28;19925;-72
2023/07/03 10:16:58;;;;;;;2.22;1.27;;;;;;;18.78;61.97;99036.41;10465786;28;20045;-73
2023/07/03 10:22:00;;;;;;;2.55;1.05;;;;;;;17.53;67.57;99050.06;10482654;28;20392;-73
2023/07/03 10:27:02;;;;;;;7.15;0.95;;;;;;;16.20;74.54;99070.41;10462817;28;20052;-73
2023/07/03 10:32:08;;;;;;;2.72;1.35;;;;;;;15.72;78.38;99082.56;10459760;28;20052;-73
2023/07/03 10:37:12;;;;;;;3.75;1.17;;;;;;;15.63;80.81;99076.38;10484553;28;20052;-72
2023/07/03 10:42:29;;;;;;;1.77;1.33;;;;;;;15.68;82.24;99071.41;10466712;28;20041;-72
2023/07/03 10:47:47;;;;;;;2.78;1.20;;;;;;;15.97;83.53;99075.75;10481122;28;20419;-74
2023/07/03 10:53:06;;;;;;;1.33;1.00;;;;;;;16.48;82.83;99078.59;10484586;28;20071;-73
2023/07/03 10:58:23;;;;;;;5.35;1.30;;;;;;;17.06;82.10;99080.75;10462186;28;20037;-72
2023/07/03 11:03:51;;;;;;;2.85;1.40;;;;;;;17.58;81.06;99102.47;10481339;28;20406;-72
2023/07/03 11:09:10;;;;;;;5.10;1.60;;;;;;;17.89;78.54;99109.06;10475575;28;20053;-73
2023/07/03 11:14:40;;;;;;;2.53;1.20;;;;;;;17.96;77.08;99096.09;10467059;28;20420;-73
2023/07/03 11:19:49;;;;;;;2.42;1.40;;;;;;;18.11;74.89;99097.16;10460402;28;20530;-75
2023/07/03 11:25:07;;;;;;;2.50;1.20;;;;;;;18.34;73.70;99086.88;10457521;28;20044;-75
2023/07/03 11:30:10;;;;;;;2.53;1.30;;;;;;;18.51;71.49;99096.66;10478614;28;20037;-75
2023/07/03 11:35:13;;;;;;;3.20;1.30;;;;;;;18.80;70.00;99091.59;10462709;28;20507;-74
2023/07/03 11:40:35;;;;;;;4.03;1.20;;;;;;;18.78;70.11;99086.41;10463938;28;20037;-73
2023/07/03 11:45:37;;;;;;;1.20;1.10;;;;;;;18.87;69.14;99080.59;10463780;28;20529;-74
2023/07/03 11:50:39;;;;;;;2.55;1.30;;;;;;;18.91;66.88;99089.75;10461355;28;20045;-73
2023/07/03 11:55:41;;;;;;;3.50;1.30;;;;;;;18.99;66.71;99097.06;10487113;28;20805;-73
2023/07/03 12:00:44;;;;;;;2.85;1.60;;;;;;;19.16;66.00;99101.25;10452145;28;20080;-73
2023/07/03 12:05:49;;;;;;;2.10;0.88;;;;;;;19.32;63.18;99103.88;10490841;28;20045;-73
2023/07/03 12:10:55;;;;;;;4.22;0.90;;;;;;;19.48;61.17;99099.72;10490589;28;20041;-73
2023/07/03 12:15:58;;;;;;;2.65;0.93;;;;;;;19.53;59.56;99104.13;10488488;28;20044;-73
2023/07/03 12:21:02;;;;;;;3.95;1.10;;;;;;;19.61;58.90;99099.47;10490081;28;20052;-73
2023/07/03 12:26:15;;;;;;;1.52;1.10;;;;;;;19.64;57.00;99098.75;10484166;28;20041;-73
2023/07/03 12:31:20;;;;;;;3.38;1.00;;;;;;;19.74;57.35;99131.44;10483122;28;20136;-73
2023/07/03 12:36:27;;;;;;;2.05;0.85;;;;;;;19.90;57.07;99134.81;10480149;28;20040;-74
2023/07/03 12:41:32;;;;;;;1.40;0.93;;;;;;;19.84;55.25;99136.34;10439112;28;20041;-73
2023/07/03 12:46:37;;;;;;;2.28;0.82;;;;;;;19.82;54.62;99145.09;10465887;28;20041;-75
2023/07/03 12:51:50;;;;;;;3.40;0.90;;;;;;;19.72;54.57;99145.75;10481872;28;20052;-74
2023/07/03 12:56:53;;;;;;;1.50;0.95;;;;;;;19.57;53.65;99155.09;10485957;28;20044;-74
2023/07/03 13:01:55;;;;;;;1.60;0.70;;;;;;;19.59;53.89;99158.28;10482071;28;20037;-73
2023/07/03 13:06:58;;;;;;;1.05;0.90;;;;;;;19.63;54.11;99172.28;10467513;28;20052;-73
2023/07/03 13:12:00;;;;;;;6.32;0.98;;;;;;;19.44;53.53;99179.56;10451019;28;20049;-72
2023/07/03 13:17:03;;;;;;;1.30;0.90;;;;;;;19.49;54.49;99195.91;10470120;28;20046;-74
2023/07/03 13:22:07;;;;;;;0.85;0.85;;;;;;;19.66;53.97;99182.66;10451690;28;20044;-73
2023/07/03 13:27:27;;;;;;;1.48;0.65;;;;;;;19.77;53.17;99201.06;10474626;28;20057;-74
2023/07/03 13:32:29;;;;;;;4.15;1.00;;;;;;;19.85;52.23;99208.34;10475000;28;20578;-76
2023/07/03 13:37:34;;;;;;;5.43;1.20;;;;;;;19.80;50.32;99219.03;10475982;28;20055;-75
2023/07/03 13:42:36;;;;;;;1.83;0.80;;;;;;;19.68;49.36;99219.25;10484779;28;20097;-75
2023/07/03 13:47:38;;;;;;;1.52;0.90;;;;;;;19.52;50.71;99228.53;10481350;28;20033;-75
2023/07/03 13:52:40;;;;;;;2.15;1.42;;;;;;;19.37;52.10;99218.38;10484918;28;20055;-74
2023/07/03 13:57:43;;;;;;;1.30;0.90;;;;;;;19.17;51.54;99237.16;10458942;28;20045;-75
2023/07/03 14:02:46;;;;;;;2.38;1.17;;;;;;;19.13;51.68;99252.16;10471205;28;20467;-76
2023/07/03 14:07:48;;;;;;;1.38;0.80;;;;;;;19.00;50.10;99251.56;10466565;28;20055;-76
2023/07/03 14:12:50;;;;;;;1.77;0.98;;;;;;;18.85;50.04;99256.06;10441230;28;20403;-75
2023/07/03 14:17:53;;;;;;;2.10;0.77;;;;;;;18.88;50.55;99246.97;10481828;28;20041;-75
2023/07/03 14:22:55;;;;;;;2.50;0.90;;;;;;;18.89;52.05;99264.44;10486624;28;20493;-73
2023/07/03 14:27:58;;;;;;;1.25;0.90;;;;;;;18.87;52.47;99259.28;10485162;28;20502;-74
2023/07/03 14:33:01;;;;;;;1.83;0.95;;;;;;;18.85;52.74;99261.63;10481012;28;20519;-75
2023/07/03 14:38:03;;;;;;;0.80;0.80;;;;;;;18.80;53.40;99259.16;10481470;28;20049;-74
2023/07/03 14:43:06;;;;;;;1.38;1.05;;;;;;;18.80;53.59;99281.38;10486755;28;20048;-74
2023/07/03 14:48:09;;;;;;;2.33;0.80;;;;;;;18.84;54.70;99273.09;10482190;28;20044;-74
2023/07/03 14:53:11;;;;;;;3.97;1.25;;;;;;;18.94;52.96;99262.19;10481321;28;20045;-72
2023/07/03 14:58:14;;;;;;;1.55;1.30;;;;;;;19.03;53.12;99275.03;10483720;28;20041;-72
2023/07/03 15:03:16;;;;;;;1.55;0.98;;;;;;;19.10;53.91;99289.88;10477705;28;20060;-72
2023/07/03 15:08:18;;;;;;;5.18;1.40;;;;;;;19.05;55.10;99292.13;10478062;28;20068;-71
2023/07/03 15:13:21;;;;;;;2.55;1.17;;;;;;;18.96;55.99;99293.19;10483637;28;20044;-71
2023/07/03 15:18:23;;;;;;;4.70;1.50;;;;;;;18.91;56.22;99287.91;10483708;28;20045;-72
2023/07/03 15:23:26;;;;;;;1.08;0.98;;;;;;;18.96;56.11;99286.84;10481612;28;20045;-71
2023/07/03 15:28:28;;;;;;;3.13;1.25;;;;;;;19.00;55.93;99286.88;10489017;28;20049;-72
2023/07/03 15:33:30;;;;;;;4.05;1.17;;;;;;;18.96;54.37;99287.63;10483932;28;20052;-72
2023/07/03 15:38:32;;;;;;;1.95;1.00;;;;;;;18.92;53.36;99291.53;10486787;28;20049;-72
2023/07/03 15:43:34;;;;;;;2.60;0.82;;;;;;;18.84;53.56;99312.81;10482249;28;20048;-73
2023/07/03 15:48:37;;;;;;;2.20;1.08;;;;;;;18.70;53.76;99307.00;10491732;28;20036;-73
2023/07/03 15:53:39;;;;;;;8.25;1.60;;;;;;;18.63;54.65;99313.22;10492362;28;20052;-72
2023/07/03 15:58:43;;;;;;;1.63;1.10;;;;;;;18.54;56.56;99311.81;10489092;28;20499;-73
2023/07/03 16:03:47;;;;;;;4.18;1.38;;;;;;;18.34;57.99;99320.13;10488605;28;20045;-73
2023/07/03 16:08:50;;;;;;;3.80;0.90;;;;;;;17.94;59.77;99336.31;10471813;28;20099;-73
2023/07/03 16:13:52;;;;;;;1.55;1.13;;;;;;;17.67;61.92;99344.38;10475408;28;20037;-73
2023/07/03 16:18:57;;;;;;;4.00;0.98;;;;;;;17.58;62.07;99338.25;10484698;28;20110;-73
2023/07/03 16:24:00;;;;;;;2.25;1.08;;;;;;;17.46;61.77;99332.78;10477166;28;20047;-74
2023/07/03 16:29:06;;;;;;;2.47;1.00;;;;;;;17.35;61.68;99340.03;10470768;28;20045;-74
2023/07/03 16:34:09;;;;;;;2.47;1.70;;;;;;;17.39;62.27;99349.25;10434209;28;20037;-74
2023/07/03 16:39:11;;;;;;;1.13;0.80;;;;;;;17.38;62.46;99355.97;10471608;28;20155;-74
2023/07/03 16:44:13;;;;;;;4.68;0.95;;;;;;;17.39;61.68;99350.06;10480674;28;20416;-73
2023/07/03 16:49:15;;;;;;;2.70;0.85;;;;;;;17.41;62.02;99371.88;10484088;28;20048;-73
2023/07/03 16:54:17;;;;;;;1.50;0.98;;;;;;;17.23;62.14;99362.31;10473043;28;20491;-73
2023/07/03 16:59:20;;;;;;;2.50;1.23;;;;;;;17.02;61.70;99380.00;10485005;28;20037;-73
2023/07/03 17:04:22;;;;;;;0.40;0.40;;;;;;;16.86;62.57;99370.84;10483811;28;20045;-74
2023/07/03 17:09:24;;;;;;;1.30;0.82;;;;;;;16.76;62.86;99386.00;10463072;28;20040;-73
2023/07/03 17:14:26;;;;;;;3.70;1.65;;;;;;;16.72;62.73;99385.09;10470507;28;20037;-72
2023/07/03 17:19:28;;;;;;;3.83;1.00;;;;;;;16.70;62.47;99381.06;10465093;28;20052;-74
2023/07/03 17:24:30;;;;;;;3.40;0.80;;;;;;;16.68;61.47;99386.97;10467087;28;20045;-74
2023/07/03 17:29:33;;;;;;;1.70;0.60;;;;;;;16.65;60.99;99400.66;10488871;28;20411;-75
2023/07/03 17:34:36;;;;;;;2.85;1.13;;;;;;;16.50;61.03;99397.50;10468811;28;20527;-74
2023/07/03 17:39:38;;;;;;;2.47;0.82;;;;;;;16.56;60.70;99400.81;10484544;28;20045;-73
2023/07/03 17:44:40;;;;;;;1.30;0.65;;;;;;;16.62;60.05;99404.94;10486804;28;20045;-74
2023/07/03 17:49:42;;;;;;;2.95;0.80;;;;;;;16.56;59.30;99418.25;10475745;28;20048;-74
2023/07/03 17:54:45;;;;;;;0.80;0.70;;;;;;;16.50;58.63;99430.72;10483160;28;20048;-74
2023/07/03 17:59:47;;;;;;;1.88;0.82;;;;;;;16.45;59.57;99422.66;10484983;28;20423;-74
2023/07/03 18:04:49;;;;;;;1.02;0.60;;;;;;;16.54;60.68;99439.13;10483480;28;20048;-73
2023/07/03 18:09:51;;;;;;;2.97;1.40;;;;;;;16.46;62.35;99440.88;10481779;28;20538;-73
2023/07/03 18:14:53;;;;;;;4.22;1.25;;;;;;;16.31;61.85;99444.34;10485126;28;20044;-73
2023/07/03 18:19:55;;;;;;;1.73;1.13;;;;;;;16.21;62.48;99431.00;10448161;28;20052;-74
2023/07/03 18:24:57;;;;;;;1.58;0.73;;;;;;;16.10;60.81;99433.44;10484142;28;20422;-78
2023/07/03 18:30:00;;;;;;;1.65;0.80;;;;;;;16.08;61.20;99423.88;10444569;28;20041;-77
2023/07/03 18:35:03;;;;;;;2.78;0.77;;;;;;;16.07;60.96;99441.63;10477758;28;20037;-75
2023/07/03 18:40:06;;;;;;;1.17;0.70;;;;;;;16.03;61.04;99455.34;10484667;28;20055;-74
2023/07/03 18:45:08;;;;;;;0.88;0.70;;;;;;;16.04;61.19;99458.94;10483718;28;20498;-74
2023/07/03 18:50:12;;;;;;;1.73;1.17;;;;;;;16.03;61.42;99449.81;10484302;28;20044;-74
2023/07/03 18:55:15;;;;;;;1.90;0.85;;;;;;;16.00;61.09;99456.06;10482658;28;20048;-74
2023/07/03 19:00:17;;;;;;;1.38;1.02;;;;;;;16.02;60.52;99444.63;10476761;28;20041;-74
2023/07/03 19:05:19;;;;;;;1.75;0.70;;;;;;;15.96;59.86;99453.13;10464604;28;20033;-73
2023/07/03 19:10:21;;;;;;;3.85;0.80;;;;;;;15.91;60.44;99460.88;10464587;28;20049;-73
2023/07/03 19:15:23;;;;;;;1.52;0.65;;;;;;;15.84;59.40;99455.94;10479398;28;20045;-74
2023/07/03 19:20:27;;;;;;;1.02;0.57;;;;;;;15.82;59.12;99461.00;10471676;28;20048;-74
2023/07/03 19:25:29;;;;;;;0.90;0.65;;;;;;;15.72;58.98;99461.44;10480647;28;20055;-75
2023/07/03 19:30:32;;;;;;;1.02;0.70;;;;;;;15.59;59.41;99462.56;10464396;28;20091;-74
2023/07/03 19:35:36;;;;;;;0.85;0.50;;;;;;;15.48;59.68;99461.38;10482481;28;20048;-74
2023/07/03 19:40:39;;;;;;;1.52;0.40;;;;;;;15.37;59.79;99469.28;10481591;28;20059;-74
2023/07/03 19:45:41;;;;;;;1.25;0.50;;;;;;;15.26;59.72;99477.19;10483760;28;20037;-74
2023/07/03 19:50:47;;;;;;;1.23;0.80;;;;;;;15.14;59.75;99471.66;10478487;28;20041;-74
2023/07/03 19:55:50;;;;;;;0.70;0.70;;;;;;;15.06;59.55;99475.28;10473650;28;20533;-73
2023/07/03 20:00:53;;;;;;;1.35;0.80;;;;;;;15.02;60.42;99477.13;10479987;28;20037;-73
2023/07/03 20:05:56;;;;;;;1.38;0.82;;;;;;;14.90;61.36;99486.16;10481187;28;20052;-73
2023/07/03 20:11:00;;;;;;;1.00;0.77;;;;;;;14.77;62.48;99512.13;10477843;28;20045;-73
2023/07/03 20:16:02;;;;;;;0.40;0.40;;;;;;;14.67;62.98;99518.03;10486084;28;20517;-73
2023/07/03 20:21:06;;;;;;;4.95;0.60;;;;;;;14.46;63.84;99516.06;10487069;28;20033;-73
2023/07/03 20:26:09;;;;;;;3.28;0.73;;;;;;;14.36;65.66;99530.19;10476879;28;20052;-73
2023/07/03 20:31:13;;;;;;;0.80;0.50;;;;;;;14.10;67.91;99533.09;10481024;28;20044;-73
2023/07/03 20:36:16;;;;;;;0.95;0.60;;;;;;;13.77;70.12;99543.94;10483354;28;20041;-73
2023/07/03 20:41:19;;;;;;;0.88;0.45;;;;;;;13.48;72.99;99536.38;10478586;28;20060;-73
2023/07/03 20:46:21;;;;;;;2.35;0.60;;;;;;;13.23;73.95;99546.31;10477491;28;20036;-73
2023/07/03 20:51:26;;;;;;;1.45;0.40;;;;;;;13.12;74.55;99538.66;10478066;28;20140;-73
2023/07/03 20:56:32;;;;;;;0.55;0.43;;;;;;;13.07;74.97;99541.59;10458311;28;20056;-72
2023/07/03 21:01:36;;;;;;;0.73;0.60;;;;;;;13.07;74.28;99531.38;10476332;28;20057;-72
2023/07/03 21:06:39;;;;;;;0.65;0.50;;;;;;;12.98;73.51;99527.81;10476866;28;20336;-75
2023/07/03 21:11:46;;;;;;;0.45;0.30;;;;;;;13.02;73.78;99533.50;10476645;28;20037;-73
2023/07/03 21:16:48;;;;;;;0.70;0.60;;;;;;;12.95;73.73;99537.53;10477721;28;20056;-72
2023/07/03 21:21:50;;;;;;;1.48;0.40;;;;;;;12.97;73.94;99521.47;10470518;28;20048;-73
2023/07/03 21:26:53;;;;;;;0.50;0.43;;;;;;;13.05;73.39;99513.56;10469090;28;20045;-73
2023/07/03 21:31:55;;;;;;;0.60;0.50;;;;;;;13.06;73.03;99523.44;10464375;28;20554;-73
2023/07/03 21:36:57;;;;;;;1.65;0.45;;;;;;;12.99;73.54;99521.97;10472702;28;20041;-73
2023/07/03 21:41:59;;;;;;;0.93;0.50;;;;;;;12.97;73.75;99527.00;10467689;28;20059;-73
2023/07/03 21:47:01;;;;;;;0.95;0.68;;;;;;;12.99;73.92;99524.72;10460891;28;20044;-72
2023/07/03 21:52:04;;;;;;;2.67;0.70;;;;;;;13.06;74.39;99534.44;10485610;28;20045;-71
2023/07/03 21:57:06;;;;;;;0.82;0.55;;;;;;;13.07;74.63;99533.31;10474374;28;20036;-73
2023/07/03 22:02:08;;;;;;;1.08;0.75;;;;;;;13.13;74.80;99526.50;10482865;28;20051;-73
2023/07/03 22:07:12;;;;;;;0.43;0.43;;;;;;;13.14;74.73;99536.38;10481991;28;20418;-73
2023/07/03 22:12:14;;;;;;;0.80;0.60;;;;;;;13.18;76.12;99535.44;10478419;28;20061;-73
2023/07/03 22:17:16;;;;;;;0.88;0.80;;;;;;;13.17;76.07;99531.03;10464260;28;20041;-73
2023/07/03 22:22:18;;;;;;;2.15;0.70;;;;;;;13.15;76.76;99518.72;10482485;28;20045;-73
2023/07/03 22:27:21;;;;;;;0.85;0.70;;;;;;;13.19;77.34;99533.47;10444793;28;20045;-73
2023/07/03 22:32:23;;;;;;;1.10;0.70;;;;;;;13.24;77.27;99519.56;10473818;28;20507;-73
2023/07/03 22:37:25;;;;;;;1.10;0.60;;;;;;;13.38;77.31;99519.38;10458301;28;20124;-73
2023/07/03 22:42:28;;;;;;;2.53;0.85;;;;;;;13.46;77.03;99533.13;10452041;28;20075;-72
2023/07/03 22:47:30;;;;;;;1.10;0.80;;;;;;;13.52;76.59;99531.81;10477492;28;20029;-72
2023/07/03 22:52:33;;;;;;;6.40;0.98;;;;;;;13.55;76.54;99525.66;10462416;28;20052;-72
2023/07/03 22:57:35;;;;;;;2.40;1.05;;;;;;;13.52;77.03;99534.56;10479997;28;20059;-72
2023/07/03 23:02:38;;;;;;;1.25;1.00;;;;;;;13.56;77.05;99532.81;10479250;28;20033;-72
2023/07/03 23:07:40;;;;;;;3.85;1.08;;;;;;;13.53;77.18;99530.66;10446505;28;20823;-72
2023/07/03 23:12:42;;;;;;;1.92;1.30;;;;;;;13.51;77.13;99530.19;10463716;28;20671;-72
2023/07/03 23:17:45;;;;;;;1.70;0.90;;;;;;;13.47;78.01;99528.44;10481937;28;20045;-72
2023/07/03 23:22:48;;;;;;;2.30;1.10;;;;;;;13.42;78.42;99515.66;10479428;28;20431;-72
2023/07/03 23:27:50;;;;;;;1.77;0.85;;;;;;;13.35;79.32;99509.81;10480776;28;20413;-73
2023/07/03 23:32:52;;;;;;;7.13;1.60;;;;;;;13.32;79.45;99504.94;10480611;28;20633;-73